Time;durP1;ratioP1;P1;durP2;ratioP2;P2;SDS_P1;SDS_P2;PMS_P1;PMS_P2;Temp;Humidity;BMP_temperature;BMP_pressure;BME280_temperature;BME280_humidity;BME280_pressure;Samples;Min_cycle;Max_cycle;Signal;HPM_P1;HPM_P2
2021/12/11 00:00:27;;;;;;;1.10;1.00;;;4.20;98.00;;;;;;5095299;28;20941;-63
2021/12/11 00:03:02;;;;;;;1.10;0.90;;;4.20;98.00;;;;;;5095458;28;20804;-64
2021/12/11 00:05:33;;;;;;;1.20;1.00;;;4.20;98.00;;;;;;5095632;28;20451;-64
2021/12/11 00:08:02;;;;;;;1.10;1.00;;;4.20;98.00;;;;;;5095456;28;20487;-63
2021/12/11 00:10:46;;;;;;;1.10;1.00;;;4.20;98.00;;;;;;5095246;28;20466;-64
2021/12/11 00:13:28;;;;;;;1.10;1.00;;;4.20;98.00;;;;;;5095312;28;20467;-64
2021/12/11 00:15:58;;;;;;;1.10;1.10;;;4.20;98.00;;;;;;5095312;28;20951;-64
2021/12/11 00:18:36;;;;;;;1.10;0.90;;;4.30;98.00;;;;;;5094807;28;20465;-64
2021/12/11 00:24:13;;;;;;;1.10;1.00;;;4.30;98.00;;;;;;5066304;22;21016;-63
2021/12/11 00:26:50;;;;;;;1.10;1.00;;;4.30;98.00;;;;;;5015140;28;20470;-63
2021/12/11 00:29:24;;;;;;;1.10;0.90;;;4.20;98.00;;;;;;5015109;28;20491;-63
2021/12/11 00:31:58;;;;;;;1.10;1.00;;;4.20;98.00;;;;;;5015147;28;20463;-63
2021/12/11 00:34:27;;;;;;;1.40;1.23;;;4.20;98.00;;;;;;5015182;28;20466;-62
2021/12/11 00:37:01;;;;;;;1.10;1.00;;;4.20;98.00;;;;;;5015079;28;20468;-63
2021/12/11 00:39:38;;;;;;;1.40;1.27;;;4.30;98.00;;;;;;5014897;28;20464;-63
2021/12/11 00:42:17;;;;;;;1.10;0.90;;;4.30;98.00;;;;;;5013895;28;20455;-63
2021/12/11 00:44:51;;;;;;;1.10;1.00;;;4.20;98.00;;;;;;5015021;28;20466;-63
2021/12/11 00:47:25;;;;;;;1.10;1.00;;;4.30;98.00;;;;;;5013647;28;20498;-62
2021/12/11 00:50:00;;;;;;;1.10;0.90;;;4.30;98.00;;;;;;5014827;28;20455;-63
2021/12/11 00:52:33;;;;;;;1.10;1.00;;;4.20;98.00;;;;;;5013634;28;20474;-63
2021/12/11 00:55:07;;;;;;;1.20;1.10;;;4.20;98.00;;;;;;5014268;28;20639;-63
2021/12/11 00:57:40;;;;;;;1.10;1.10;;;4.10;98.00;;;;;;5014937;28;20477;-63
2021/12/11 01:00:18;;;;;;;1.10;1.00;;;4.00;98.00;;;;;;5014828;28;20463;-63
2021/12/11 01:02:54;;;;;;;1.10;0.90;;;4.00;98.00;;;;;;5014763;28;20466;-64
2021/12/11 01:05:28;;;;;;;1.10;0.90;;;4.00;98.00;;;;;;5014520;28;20474;-64
2021/12/11 01:08:12;;;;;;;1.10;0.97;;;4.10;98.00;;;;;;5014636;28;20519;-63
2021/12/11 01:10:42;;;;;;;1.10;0.90;;;4.20;98.00;;;;;;5014394;28;20459;-62
2021/12/11 01:13:18;;;;;;;1.10;0.90;;;3.90;98.00;;;;;;5014627;28;20452;-62
2021/12/11 01:16:00;;;;;;;1.33;1.07;;;3.70;98.00;;;;;;5013838;28;20478;-63
2021/12/11 01:18:37;;;;;;;1.20;1.10;;;3.50;98.00;;;;;;5014389;28;20572;-63
2021/12/11 01:21:27;;;;;;;1.10;1.00;;;3.30;98.00;;;;;;5014151;28;20942;-62
2021/12/11 01:24:27;;;;;;;1.10;0.90;;;3.00;98.00;;;;;;5013942;28;20983;-63
2021/12/11 01:27:08;;;;;;;1.10;0.90;;;2.90;98.00;;;;;;5014091;28;20463;-63
2021/12/11 01:29:40;;;;;;;1.10;1.10;;;2.80;98.00;;;;;;5011612;28;20475;-63
2021/12/11 01:32:11;;;;;;;1.10;0.90;;;2.70;98.00;;;;;;5014065;28;20463;-63
2021/12/11 01:34:40;;;;;;;1.73;1.33;;;2.80;98.00;;;;;;5014117;28;20465;-62
2021/12/11 01:37:13;;;;;;;1.10;1.00;;;2.70;98.00;;;;;;5014083;28;20458;-62
2021/12/11 01:39:42;;;;;;;1.10;0.90;;;2.60;98.00;;;;;;5013637;28;20458;-63
2021/12/11 01:42:24;;;;;;;1.10;0.90;;;2.60;98.00;;;;;;5013668;28;20452;-63
2021/12/11 01:44:58;;;;;;;1.20;1.00;;;2.50;98.00;;;;;;5013627;28;20525;-63
2021/12/11 01:47:34;;;;;;;1.10;0.97;;;2.50;98.00;;;;;;5013490;28;20471;-63
2021/12/11 01:50:17;;;;;;;1.77;1.20;;;2.50;98.00;;;;;;5013658;28;20490;-63
2021/12/11 01:52:53;;;;;;;1.10;1.00;;;2.40;98.00;;;;;;5013815;28;20467;-63
2021/12/11 01:55:29;;;;;;;1.10;1.00;;;2.50;98.00;;;;;;5013657;28;20458;-63
2021/12/11 01:58:05;;;;;;;1.90;1.40;;;2.50;98.00;;;;;;5013595;28;20465;-63
2021/12/11 02:00:43;;;;;;;1.10;1.00;;;2.50;98.00;;;;;;5013454;28;20455;-63
2021/12/11 02:03:14;;;;;;;1.10;0.90;;;2.50;98.00;;;;;;4993959;28;20452;-63
2021/12/11 02:05:53;;;;;;;1.10;1.00;;;2.60;98.00;;;;;;4993856;28;20517;-63
2021/12/11 02:08:32;;;;;;;1.97;1.40;;;2.60;98.00;;;;;;4993149;28;20484;-62
2021/12/11 02:11:09;;;;;;;1.10;1.10;;;2.70;98.00;;;;;;4993889;28;20513;-63
2021/12/11 02:13:46;;;;;;;1.10;1.00;;;2.70;98.00;;;;;;4993705;28;20801;-63
2021/12/11 02:16:22;;;;;;;1.10;0.90;;;2.70;98.00;;;;;;4993363;28;20463;-63
2021/12/11 02:18:59;;;;;;;1.10;1.00;;;2.60;98.00;;;;;;4993541;28;20452;-63
2021/12/11 02:21:36;;;;;;;1.20;1.03;;;2.50;98.00;;;;;;4993755;28;20463;-63
2021/12/11 02:24:10;;;;;;;1.10;1.00;;;2.60;98.00;;;;;;4993579;28;20506;-62
2021/12/11 02:26:41;;;;;;;1.10;1.00;;;2.70;98.00;;;;;;4993672;28;20499;-63
2021/12/11 02:29:17;;;;;;;1.10;1.00;;;2.70;98.00;;;;;;4993663;28;20496;-62
2021/12/11 02:31:50;;;;;;;1.10;1.00;;;2.70;98.00;;;;;;4992926;28;20942;-62
2021/12/11 02:34:23;;;;;;;1.10;0.90;;;2.70;98.00;;;;;;4991192;28;20452;-63
2021/12/11 02:37:01;;;;;;;1.10;1.00;;;2.90;98.00;;;;;;4992637;28;20463;-63
2021/12/11 02:39:43;;;;;;;1.10;1.00;;;2.80;98.00;;;;;;4992688;28;20460;-63
2021/12/11 02:42:18;;;;;;;1.10;1.00;;;2.80;98.00;;;;;;4993099;28;20458;-63
2021/12/11 02:44:55;;;;;;;1.20;1.07;;;2.90;98.00;;;;;;4993147;28;20498;-63
2021/12/11 02:47:32;;;;;;;1.10;0.90;;;2.80;98.00;;;;;;4992942;28;20459;-63
2021/12/11 02:50:05;;;;;;;1.10;0.90;;;2.80;98.00;;;;;;4993055;28;20506;-63
2021/12/11 02:52:45;;;;;;;1.10;0.90;;;2.80;98.00;;;;;;4992846;28;20507;-62
2021/12/11 02:55:28;;;;;;;1.10;1.00;;;2.70;98.00;;;;;;4992627;28;20974;-63
2021/12/11 02:58:07;;;;;;;1.10;1.00;;;2.70;98.00;;;;;;4993029;28;20455;-63
2021/12/11 03:00:45;;;;;;;1.30;1.13;;;2.80;98.00;;;;;;4992329;28;20530;-63
2021/12/11 03:03:25;;;;;;;1.30;1.20;;;2.80;98.00;;;;;;4992736;28;21028;-62
2021/12/11 03:06:06;;;;;;;1.10;1.00;;;2.80;98.00;;;;;;4991486;28;20463;-63
2021/12/11 03:08:50;;;;;;;1.10;0.90;;;2.70;98.00;;;;;;4992554;28;20488;-62
2021/12/11 03:11:26;;;;;;;1.10;1.00;;;2.70;98.00;;;;;;4992482;28;20518;-63
2021/12/11 03:14:04;;;;;;;1.70;1.23;;;2.80;98.00;;;;;;4992750;28;20878;-62
2021/12/11 03:16:37;;;;;;;1.10;1.00;;;2.70;98.00;;;;;;4991031;28;20471;-63
2021/12/11 03:19:15;;;;;;;2.80;1.40;;;2.70;98.00;;;;;;4991909;28;20971;-62
2021/12/11 03:21:49;;;;;;;1.20;1.10;;;2.70;98.00;;;;;;4992375;28;20987;-63
2021/12/11 03:24:20;;;;;;;1.10;1.00;;;2.60;98.00;;;;;;4992553;28;20942;-63
2021/12/11 03:26:53;;;;;;;1.10;1.00;;;2.70;98.00;;;;;;4991291;28;20499;-63
2021/12/11 03:29:22;;;;;;;1.10;1.00;;;2.70;98.00;;;;;;4992537;28;20855;-63
2021/12/11 03:31:55;;;;;;;1.10;0.90;;;2.70;98.00;;;;;;4992524;28;20487;-62
2021/12/11 03:34:34;;;;;;;1.10;1.00;;;2.70;98.00;;;;;;4991914;28;20467;-63
2021/12/11 03:37:19;;;;;;;1.10;1.00;;;2.60;98.00;;;;;;4991987;28;20467;-63
2021/12/11 03:39:54;;;;;;;1.10;1.00;;;2.70;98.00;;;;;;4992125;28;20456;-63
2021/12/11 03:42:35;;;;;;;1.10;1.00;;;2.70;98.00;;;;;;4992692;28;21157;-62
2021/12/11 03:45:12;;;;;;;1.10;1.00;;;2.80;98.00;;;;;;4992470;28;20804;-63
2021/12/11 03:47:53;;;;;;;1.20;1.10;;;2.80;98.00;;;;;;4992571;28;20858;-63
2021/12/11 03:50:24;;;;;;;1.10;1.00;;;2.80;98.00;;;;;;4992344;28;20590;-62
2021/12/11 03:52:54;;;;;;;1.10;1.00;;;2.90;98.00;;;;;;4992389;28;21029;-63
2021/12/11 03:55:30;;;;;;;1.10;1.00;;;2.90;98.00;;;;;;4992551;28;20456;-63
2021/12/11 03:58:01;;;;;;;1.27;1.10;;;2.90;98.00;;;;;;4991892;28;20459;-63
2021/12/11 04:00:34;;;;;;;1.10;1.00;;;3.00;98.00;;;;;;4991577;28;20804;-63
2021/12/11 04:03:06;;;;;;;1.10;0.90;;;3.00;98.00;;;;;;4992219;28;20456;-63
2021/12/11 04:05:44;;;;;;;1.10;1.10;;;3.10;98.00;;;;;;4991846;28;20474;-63
2021/12/11 04:08:16;;;;;;;1.10;1.00;;;3.00;98.00;;;;;;4991807;28;20538;-63
2021/12/11 04:10:48;;;;;;;1.20;1.00;;;3.00;98.00;;;;;;4991998;28;20543;-63
2021/12/11 04:13:22;;;;;;;1.10;1.00;;;3.00;98.00;;;;;;4991929;28;20937;-63
2021/12/11 04:15:58;;;;;;;1.10;1.10;;;3.00;98.00;;;;;;4991422;28;20804;-63
2021/12/11 04:18:33;;;;;;;3.00;1.20;;;3.10;98.00;;;;;;4991829;28;20958;-63
2021/12/11 04:21:04;;;;;;;1.10;1.10;;;3.10;98.00;;;;;;4991719;28;20545;-63
2021/12/11 04:23:50;;;;;;;1.10;1.00;;;3.10;98.00;;;;;;4991615;28;20468;-62
2021/12/11 04:26:21;;;;;;;1.10;1.00;;;3.00;98.00;;;;;;4989651;28;20494;-64
2021/12/11 04:28:54;;;;;;;1.10;1.00;;;2.90;98.00;;;;;;4991841;28;20488;-63
2021/12/11 04:31:26;;;;;;;1.10;1.00;;;2.90;98.00;;;;;;4994852;28;20460;-64
2021/12/11 04:33:58;;;;;;;1.10;1.00;;;2.80;98.00;;;;;;4995379;28;20467;-62
2021/12/11 04:36:30;;;;;;;1.10;1.00;;;2.90;98.00;;;;;;4994372;28;20468;-63
2021/12/11 04:39:08;;;;;;;1.20;1.10;;;2.90;98.00;;;;;;4994153;28;20468;-63
2021/12/11 04:41:49;;;;;;;1.23;1.10;;;2.90;98.00;;;;;;4995411;28;20527;-63
2021/12/11 04:44:33;;;;;;;1.10;1.00;;;3.20;98.00;;;;;;4995176;28;20456;-63
2021/12/11 04:47:28;;;;;;;1.10;1.00;;;3.10;98.00;;;;;;4995368;28;20526;-63
2021/12/11 04:50:06;;;;;;;1.10;1.00;;;3.20;98.00;;;;;;4995050;28;20571;-62
2021/12/11 04:52:51;;;;;;;1.33;1.10;;;3.30;98.00;;;;;;4995297;28;20460;-62
2021/12/11 04:55:32;;;;;;;1.10;1.10;;;3.20;98.00;;;;;;4995299;28;21006;-63
2021/12/11 04:58:13;;;;;;;1.10;1.00;;;3.30;98.00;;;;;;4995264;28;20455;-63
2021/12/11 05:00:57;;;;;;;1.40;1.13;;;3.40;98.00;;;;;;4995202;28;20552;-63
2021/12/11 05:04:03;;;;;;;1.10;1.00;;;3.40;98.00;;;;;;4994148;28;20460;-62
2021/12/11 05:06:46;;;;;;;1.10;1.00;;;3.40;98.00;;;;;;4994907;28;20466;-63
2021/12/11 05:09:26;;;;;;;1.10;1.00;;;3.40;98.00;;;;;;4994973;28;20488;-63
2021/12/11 05:12:08;;;;;;;1.10;1.00;;;3.30;98.00;;;;;;4993891;28;20491;-63
2021/12/11 05:14:39;;;;;;;1.17;1.10;;;3.40;98.00;;;;;;4994804;28;21010;-62
2021/12/11 05:17:13;;;;;;;1.10;1.00;;;3.40;98.00;;;;;;4994932;28;20461;-63
2021/12/11 05:19:49;;;;;;;1.83;1.20;;;3.50;98.00;;;;;;4994448;28;20466;-62
2021/12/11 05:22:18;;;;;;;1.10;1.00;;;3.60;98.00;;;;;;4994590;28;20478;-62
2021/12/11 05:24:51;;;;;;;1.10;1.00;;;3.50;98.00;;;;;;4994508;28;20453;-62
2021/12/11 05:27:19;;;;;;;1.10;0.93;;;3.50;98.00;;;;;;4994410;28;20466;-62
2021/12/11 05:29:48;;;;;;;1.20;1.10;;;3.60;98.00;;;;;;4994251;28;20488;-63
2021/12/11 05:32:24;;;;;;;1.10;1.00;;;3.50;98.00;;;;;;4994103;28;20471;-62
2021/12/11 05:34:53;;;;;;;1.10;1.00;;;3.60;98.00;;;;;;4994304;28;20460;-62
2021/12/11 05:37:26;;;;;;;1.10;1.00;;;3.50;98.00;;;;;;4994356;28;20478;-62
2021/12/11 05:39:56;;;;;;;1.20;1.10;;;3.40;98.00;;;;;;4993874;28;20473;-62
2021/12/11 05:42:25;;;;;;;1.10;1.00;;;3.40;98.00;;;;;;4993339;28;20460;-63
2021/12/11 05:45:01;;;;;;;2.90;1.40;;;3.40;98.00;;;;;;4994203;28;20456;-63
2021/12/11 05:47:35;;;;;;;1.10;1.10;;;3.40;98.00;;;;;;4994066;28;20545;-62
2021/12/11 05:50:07;;;;;;;1.10;0.97;;;3.50;98.00;;;;;;4994042;28;20495;-63
2021/12/11 05:52:47;;;;;;;1.10;1.00;;;3.50;98.00;;;;;;4993836;28;20456;-63
2021/12/11 05:55:19;;;;;;;1.20;1.20;;;3.30;98.00;;;;;;4994001;28;20553;-63
2021/12/11 05:57:55;;;;;;;1.10;0.90;;;3.30;98.00;;;;;;4994029;28;20456;-62
2021/12/11 06:00:59;;;;;;;1.10;1.10;;;3.40;98.00;;;;;;4993818;28;20459;-63
2021/12/11 06:03:49;;;;;;;1.43;1.30;;;3.40;98.00;;;;;;4984041;28;20470;-63
2021/12/11 06:06:27;;;;;;;1.10;1.07;;;3.40;98.00;;;;;;4993968;28;20460;-63
2021/12/11 06:09:03;;;;;;;1.10;1.00;;;3.50;98.00;;;;;;4993785;28;20499;-63
2021/12/11 06:11:48;;;;;;;1.30;1.20;;;3.50;98.00;;;;;;4993679;28;20511;-62
2021/12/11 06:14:26;;;;;;;1.10;0.97;;;3.40;98.00;;;;;;4993721;28;20466;-62
2021/12/11 06:16:58;;;;;;;1.20;1.10;;;3.30;98.00;;;;;;4993544;28;20464;-63
2021/12/11 06:19:41;;;;;;;2.07;1.30;;;3.30;98.00;;;;;;4993647;28;20460;-63
2021/12/11 06:22:17;;;;;;;1.10;1.00;;;3.30;98.00;;;;;;4992003;28;20465;-63
2021/12/11 06:24:51;;;;;;;1.30;1.30;;;3.20;98.00;;;;;;4993597;28;20491;-63
2021/12/11 06:27:21;;;;;;;1.10;1.07;;;3.20;98.00;;;;;;4993760;28;20550;-63
2021/12/11 06:29:51;;;;;;;1.10;1.00;;;3.00;98.00;;;;;;4993430;28;20484;-63
2021/12/11 06:32:23;;;;;;;2.43;1.10;;;3.10;98.00;;;;;;4993414;28;20472;-62
2021/12/11 06:35:01;;;;;;;1.10;1.00;;;3.10;98.00;;;;;;4990844;28;20460;-63
2021/12/11 06:40:16;;;;;;;1.30;1.10;;;3.00;98.00;;;;;;4990725;28;20547;-64
2021/12/11 06:42:47;;;;;;;1.10;1.00;;;3.00;98.00;;;;;;4993045;28;20460;-63
2021/12/11 06:45:18;;;;;;;1.10;1.00;;;3.10;98.00;;;;;;4993236;28;20470;-63
2021/12/11 06:47:50;;;;;;;1.10;0.90;;;3.00;98.00;;;;;;4991994;28;20478;-63
2021/12/11 06:50:27;;;;;;;1.73;1.10;;;3.00;98.00;;;;;;4992832;28;20488;-63
2021/12/11 06:52:56;;;;;;;1.30;1.20;;;3.00;98.00;;;;;;4992838;28;20839;-63
2021/12/11 06:55:48;;;;;;;1.10;0.90;;;2.90;98.00;;;;;;4992883;28;20824;-63
2021/12/11 06:58:18;;;;;;;1.27;1.23;;;2.90;98.00;;;;;;4992750;28;20460;-62
2021/12/11 07:00:48;;;;;;;1.10;1.00;;;2.90;98.00;;;;;;4992826;28;20468;-63
2021/12/11 07:03:21;;;;;;;1.10;0.93;;;2.90;98.00;;;;;;4992923;28;20456;-63
2021/12/11 07:06:02;;;;;;;1.10;1.10;;;2.90;98.00;;;;;;4991650;28;20932;-62
2021/12/11 07:08:31;;;;;;;1.10;0.90;;;2.80;98.00;;;;;;4992116;28;20903;-63
2021/12/11 07:11:02;;;;;;;1.23;1.20;;;2.80;98.00;;;;;;4992641;28;20487;-62
2021/12/11 07:13:31;;;;;;;1.10;1.00;;;2.80;98.00;;;;;;4992639;28;20466;-63
2021/12/11 07:16:03;;;;;;;1.10;1.00;;;2.90;98.00;;;;;;4992570;28;20598;-63
2021/12/11 07:18:35;;;;;;;1.10;0.90;;;2.90;98.00;;;;;;4991631;28;20952;-62
2021/12/11 07:21:09;;;;;;;1.47;1.37;;;3.00;98.00;;;;;;4991321;28;20550;-63
2021/12/11 07:23:44;;;;;;;1.20;1.00;;;3.00;98.00;;;;;;4992261;28;20556;-63
2021/12/11 07:26:23;;;;;;;1.10;0.90;;;2.90;98.00;;;;;;4992579;28;20900;-63
2021/12/11 07:28:55;;;;;;;1.10;0.93;;;2.90;98.00;;;;;;4991523;28;20805;-63
2021/12/11 07:31:25;;;;;;;1.10;0.93;;;2.90;98.00;;;;;;4992125;28;20492;-63
2021/12/11 07:33:53;;;;;;;1.20;1.10;;;2.90;98.00;;;;;;4992382;28;20946;-63
2021/12/11 07:36:25;;;;;;;2.93;1.07;;;2.90;98.00;;;;;;4992134;28;20495;-63
2021/12/11 07:39:03;;;;;;;1.10;1.00;;;3.00;98.00;;;;;;4992569;28;20953;-63
2021/12/11 07:41:40;;;;;;;1.10;1.00;;;2.90;98.00;;;;;;4991818;28;20487;-63
2021/12/11 07:44:08;;;;;;;1.10;1.00;;;2.90;98.00;;;;;;4991469;28;20816;-63
2021/12/11 07:46:39;;;;;;;1.10;1.00;;;3.00;98.00;;;;;;4991584;28;20509;-63
2021/12/11 07:49:13;;;;;;;1.93;1.83;;;3.00;98.00;;;;;;4992131;28;20468;-63
2021/12/11 07:51:48;;;;;;;1.10;1.00;;;3.10;98.00;;;;;;4992717;28;20486;-63
2021/12/11 07:54:18;;;;;;;1.43;1.43;;;3.00;98.00;;;;;;4992823;28;20462;-62
2021/12/11 07:56:47;;;;;;;1.10;1.10;;;3.10;98.00;;;;;;4991133;28;21062;-63
2021/12/11 07:59:18;;;;;;;1.20;1.20;;;3.10;98.00;;;;;;4992306;28;20826;-63
2021/12/11 08:01:51;;;;;;;1.10;1.00;;;3.10;98.00;;;;;;4991945;28;20550;-63
2021/12/11 08:04:23;;;;;;;2.13;1.27;;;3.00;98.00;;;;;;4992410;28;20543;-62
2021/12/11 08:07:00;;;;;;;1.40;1.33;;;3.00;98.00;;;;;;4996178;28;20957;-62
2021/12/11 08:09:35;;;;;;;1.73;1.20;;;3.20;98.00;;;;;;4995816;28;20467;-62
2021/12/11 08:12:13;;;;;;;1.60;1.37;;;3.00;98.00;;;;;;4995965;28;20567;-63
2021/12/11 08:14:42;;;;;;;1.10;1.00;;;3.00;98.00;;;;;;4996002;28;20467;-63
2021/12/11 08:17:11;;;;;;;1.10;1.10;;;3.00;98.00;;;;;;4995669;28;20464;-63
2021/12/11 08:19:39;;;;;;;1.30;1.20;;;3.00;98.00;;;;;;4994487;28;20824;-62
2021/12/11 08:22:10;;;;;;;2.03;1.20;;;3.10;98.00;;;;;;4995545;28;20470;-63
2021/12/11 08:24:39;;;;;;;1.70;1.40;;;3.10;98.00;;;;;;4995671;28;20542;-63
2021/12/11 08:27:14;;;;;;;1.50;1.40;;;3.20;98.00;;;;;;4995273;28;20467;-63
2021/12/11 08:29:47;;;;;;;1.10;0.90;;;3.20;98.00;;;;;;4995330;28;20483;-63
2021/12/11 08:32:19;;;;;;;1.33;1.30;;;3.30;98.00;;;;;;4995630;28;20896;-63
2021/12/11 08:34:58;;;;;;;2.77;1.47;;;3.30;98.00;;;;;;4995563;28;20964;-62
2021/12/11 08:37:29;;;;;;;1.30;1.20;;;3.40;98.00;;;;;;4995351;28;20467;-62
2021/12/11 08:39:59;;;;;;;1.30;1.20;;;3.40;98.00;;;;;;4993809;28;20467;-63
2021/12/11 08:42:28;;;;;;;1.10;1.10;;;3.50;98.00;;;;;;4990703;28;20463;-62
2021/12/11 08:45:06;;;;;;;1.40;1.30;;;3.50;98.00;;;;;;5007559;28;20459;-62
2021/12/11 08:47:39;;;;;;;2.30;2.13;;;3.60;98.00;;;;;;5003733;28;21033;-62
2021/12/11 08:50:11;;;;;;;1.10;0.90;;;3.50;98.00;;;;;;4991909;28;20492;-62
2021/12/11 08:52:49;;;;;;;2.23;2.07;;;3.50;98.00;;;;;;5010336;28;20456;-62
2021/12/11 08:55:28;;;;;;;1.10;1.00;;;3.50;98.00;;;;;;5002846;28;20499;-63
2021/12/11 08:57:59;;;;;;;1.50;1.30;;;3.50;98.00;;;;;;4995154;28;20471;-62
2021/12/11 09:00:40;;;;;;;7.20;1.77;;;3.40;98.00;;;;;;5010118;28;20474;-63
2021/12/11 09:03:12;;;;;;;1.30;1.30;;;3.40;98.00;;;;;;4997942;28;20462;-62
2021/12/11 09:05:46;;;;;;;1.10;1.00;;;3.50;98.00;;;;;;5010214;28;21118;-62
2021/12/11 09:08:26;;;;;;;1.40;1.30;;;3.40;98.00;;;;;;5002533;28;20481;-61
2021/12/11 09:11:03;;;;;;;1.20;1.20;;;3.40;98.00;;;;;;5014225;28;20577;-62
2021/12/11 09:13:46;;;;;;;1.10;1.00;;;3.40;98.00;;;;;;5014908;28;20469;-61
2021/12/11 09:16:18;;;;;;;1.30;1.20;;;3.40;98.00;;;;;;5013138;28;20832;-62
2021/12/11 09:18:55;;;;;;;1.73;1.30;;;3.30;98.00;;;;;;5014094;28;20873;-62
2021/12/11 09:21:28;;;;;;;1.10;1.10;;;3.30;98.00;;;;;;5013171;28;20465;-62
2021/12/11 09:24:04;;;;;;;1.10;1.10;;;3.40;98.00;;;;;;5012991;28;20571;-62
2021/12/11 09:26:37;;;;;;;2.17;1.67;;;3.50;98.00;;;;;;5014224;28;20796;-62
2021/12/11 09:29:09;;;;;;;1.20;1.10;;;3.60;98.00;;;;;;5013862;28;20818;-62
2021/12/11 09:31:43;;;;;;;1.20;1.10;;;3.60;98.00;;;;;;5012710;28;20489;-62
2021/12/11 09:34:23;;;;;;;1.10;0.90;;;3.70;98.00;;;;;;5013700;28;20872;-62
2021/12/11 09:36:57;;;;;;;1.40;1.10;;;3.70;98.00;;;;;;5013811;28;20795;-62
2021/12/11 09:39:35;;;;;;;1.80;1.57;;;3.80;98.00;;;;;;5013877;28;20501;-62
2021/12/11 09:42:03;;;;;;;1.10;0.90;;;3.70;98.00;;;;;;5013835;28;20542;-62
2021/12/11 09:44:38;;;;;;;1.10;0.93;;;3.60;98.00;;;;;;5013793;28;20542;-62
2021/12/11 09:47:13;;;;;;;1.10;1.00;;;3.60;98.00;;;;;;5013942;28;20545;-62
2021/12/11 09:49:53;;;;;;;1.10;1.00;;;3.80;98.00;;;;;;5013840;28;20886;-62
2021/12/11 09:52:25;;;;;;;1.10;1.00;;;3.70;98.00;;;;;;5013565;28;20456;-62
2021/12/11 09:55:01;;;;;;;1.30;1.10;;;3.60;98.00;;;;;;5012119;28;20451;-63
2021/12/11 09:57:34;;;;;;;1.70;1.60;;;3.70;98.00;;;;;;5013695;28;20532;-62
2021/12/11 10:00:15;;;;;;;1.50;1.40;;;3.80;98.00;;;;;;5013544;28;20467;-62
2021/12/11 10:02:58;;;;;;;4.43;2.20;;;3.90;98.00;;;;;;5013744;28;20616;-62
2021/12/11 10:05:32;;;;;;;2.50;1.50;;;4.00;98.00;;;;;;5013374;28;20954;-62
2021/12/11 10:08:26;;;;;;;2.53;1.60;;;4.10;98.00;;;;;;5013660;28;20525;-63
2021/12/11 10:11:07;;;;;;;1.20;1.13;;;4.20;98.00;;;;;;5013342;28;20487;-62
2021/12/11 10:13:40;;;;;;;2.33;1.10;;;4.20;98.00;;;;;;5013512;28;20463;-62
2021/12/11 10:16:11;;;;;;;1.67;1.30;;;4.20;98.00;;;;;;5013238;28;20459;-62
2021/12/11 10:18:42;;;;;;;1.43;1.10;;;4.20;98.00;;;;;;5013559;28;20455;-63
2021/12/11 10:21:21;;;;;;;1.83;1.73;;;4.20;98.00;;;;;;5013129;28;20463;-62
2021/12/11 10:24:00;;;;;;;1.30;1.10;;;4.20;98.00;;;;;;5013248;28;20471;-63
2021/12/11 10:26:32;;;;;;;1.27;1.23;;;4.20;98.00;;;;;;5013232;28;20460;-62
2021/12/11 10:29:07;;;;;;;1.20;1.10;;;4.20;98.00;;;;;;5012885;28;20545;-62
2021/12/11 10:31:41;;;;;;;1.30;1.10;;;4.10;98.00;;;;;;5013164;28;20851;-62
2021/12/11 10:34:12;;;;;;;1.73;1.30;;;4.10;98.00;;;;;;5012725;28;20471;-63
2021/12/11 10:36:45;;;;;;;1.20;1.20;;;4.10;98.00;;;;;;5012815;28;20460;-62
2021/12/11 10:39:16;;;;;;;1.53;1.23;;;4.20;98.00;;;;;;5012858;28;20464;-63
2021/12/11 10:41:56;;;;;;;1.27;1.23;;;4.30;98.00;;;;;;5012546;28;20466;-62
2021/12/11 10:44:28;;;;;;;1.53;1.13;;;4.40;98.00;;;;;;5012773;28;20543;-62
2021/12/11 10:47:17;;;;;;;1.87;1.50;;;4.40;98.00;;;;;;5012330;28;20460;-62
2021/12/11 10:49:49;;;;;;;1.97;1.40;;;4.40;98.00;;;;;;5012360;28;20470;-61
2021/12/11 10:52:30;;;;;;;3.60;1.20;;;4.30;98.00;;;;;;5012366;28;20571;-63
2021/12/11 10:55:10;;;;;;;1.40;1.30;;;4.40;98.00;;;;;;5011986;28;20462;-63
2021/12/11 10:57:41;;;;;;;1.10;1.00;;;4.30;98.00;;;;;;5012297;28;20946;-63
2021/12/11 11:00:23;;;;;;;1.27;1.20;;;4.50;98.00;;;;;;5012301;28;20973;-62
2021/12/11 11:02:56;;;;;;;2.13;1.50;;;4.50;98.00;;;;;;5012434;28;20855;-63
2021/12/11 11:05:32;;;;;;;3.60;1.77;;;4.40;98.00;;;;;;5012155;28;20462;-62
2021/12/11 11:08:07;;;;;;;1.20;1.10;;;4.40;98.00;;;;;;5012394;28;20448;-63
2021/12/11 11:10:46;;;;;;;4.90;1.77;;;4.50;98.00;;;;;;5012086;28;21076;-62
2021/12/11 11:13:16;;;;;;;6.30;3.20;;;4.60;98.00;;;;;;5012160;28;20538;-63
2021/12/11 11:16:04;;;;;;;1.13;1.00;;;4.70;98.00;;;;;;5012088;28;20490;-63
2021/12/11 11:18:41;;;;;;;2.30;1.60;;;4.70;98.00;;;;;;5012378;28;20463;-63
2021/12/11 11:21:12;;;;;;;1.20;1.10;;;4.70;98.00;;;;;;5011785;28;20962;-63
2021/12/11 11:23:46;;;;;;;1.50;1.20;;;4.70;98.00;;;;;;5012175;28;20986;-63
2021/12/11 11:26:41;;;;;;;2.17;1.10;;;4.80;98.00;;;;;;5011838;28;20459;-63
2021/12/11 11:29:52;;;;;;;1.63;1.30;;;4.70;98.00;;;;;;5009131;28;20535;-63
2021/12/11 11:32:36;;;;;;;1.37;1.20;;;4.60;98.00;;;;;;5012033;28;20488;-63
2021/12/11 11:35:17;;;;;;;1.30;1.30;;;4.50;98.00;;;;;;5012199;28;20461;-62
2021/12/11 11:37:48;;;;;;;1.30;1.30;;;4.50;98.00;;;;;;5011964;28;20464;-62
2021/12/11 11:40:23;;;;;;;2.90;1.60;;;4.50;98.00;;;;;;5010863;28;20464;-63
2021/12/11 11:42:56;;;;;;;1.80;1.50;;;4.70;98.00;;;;;;5012092;28;20455;-63
2021/12/11 11:45:29;;;;;;;2.33;1.50;;;4.70;98.00;;;;;;5012003;28;20982;-63
2021/12/11 11:47:59;;;;;;;1.53;1.30;;;4.90;98.00;;;;;;5011984;28;20448;-63
2021/12/11 11:50:34;;;;;;;1.87;1.77;;;4.80;98.00;;;;;;5012016;28;20458;-62
2021/12/11 11:53:03;;;;;;;1.60;1.40;;;4.80;98.00;;;;;;5011762;28;20455;-62
2021/12/11 11:55:35;;;;;;;1.83;1.73;;;4.80;98.00;;;;;;5010394;28;20475;-62
2021/12/11 11:58:05;;;;;;;1.40;1.30;;;4.70;98.00;;;;;;5011631;28;20458;-62
2021/12/11 12:00:41;;;;;;;2.23;1.20;;;4.80;98.00;;;;;;5011583;28;20459;-63
2021/12/11 12:03:14;;;;;;;1.40;1.20;;;4.70;98.00;;;;;;5011800;28;20946;-62
2021/12/11 12:05:49;;;;;;;1.10;1.00;;;4.60;98.00;;;;;;5011726;28;20499;-62
2021/12/11 12:08:18;;;;;;;1.10;1.00;;;4.70;98.00;;;;;;5011454;28;20470;-62
2021/12/11 12:10:48;;;;;;;2.10;1.43;;;4.70;98.00;;;;;;5011511;28;20464;-63
2021/12/11 12:13:19;;;;;;;3.73;1.50;;;4.70;98.00;;;;;;5011615;28;21006;-63
2021/12/11 12:15:50;;;;;;;1.10;1.00;;;4.90;98.00;;;;;;5011390;28;20456;-62
2021/12/11 12:18:21;;;;;;;1.10;1.10;;;4.90;98.00;;;;;;5010467;28;20455;-63
2021/12/11 12:21:16;;;;;;;1.30;1.00;;;4.90;98.00;;;;;;5011581;28;20460;-62
2021/12/11 12:23:45;;;;;;;2.67;1.20;;;4.90;98.00;;;;;;5010059;28;20476;-63
2021/12/11 12:26:18;;;;;;;1.60;1.27;;;4.90;98.00;;;;;;5011342;28;20453;-63
2021/12/11 12:28:51;;;;;;;3.47;1.43;;;5.00;98.00;;;;;;5011538;28;20502;-63
2021/12/11 12:31:25;;;;;;;1.40;1.10;;;5.00;98.00;;;;;;5011389;28;20574;-63
2021/12/11 12:33:53;;;;;;;1.20;1.10;;;5.00;98.00;;;;;;5011338;28;20456;-62
2021/12/11 12:36:29;;;;;;;1.70;1.40;;;5.10;98.00;;;;;;5011147;28;20472;-63
2021/12/11 12:38:57;;;;;;;1.10;1.00;;;5.20;98.00;;;;;;5009928;28;20495;-62
2021/12/11 12:41:35;;;;;;;1.10;1.00;;;5.20;98.00;;;;;;5011337;28;20486;-62
2021/12/11 12:44:19;;;;;;;1.20;1.20;;;5.30;98.00;;;;;;5011457;28;20543;-62
2021/12/11 12:46:55;;;;;;;1.87;1.30;;;5.30;98.00;;;;;;5011248;28;20455;-63
2021/12/11 12:49:33;;;;;;;3.93;2.20;;;5.20;98.00;;;;;;5009838;28;20864;-62
2021/12/11 12:52:29;;;;;;;1.10;1.00;;;5.30;98.00;;;;;;5013956;28;20484;-63
2021/12/11 12:55:01;;;;;;;1.27;1.10;;;5.30;98.00;;;;;;5010043;28;20472;-62
2021/12/11 12:57:35;;;;;;;1.27;1.13;;;5.30;98.00;;;;;;5014714;28;20460;-63
2021/12/11 13:00:13;;;;;;;1.20;1.00;;;5.20;98.00;;;;;;5014275;28;20496;-62
2021/12/11 13:02:47;;;;;;;1.50;1.10;;;5.10;98.00;;;;;;5013213;28;20453;-62
2021/12/11 13:05:28;;;;;;;1.13;1.00;;;5.10;98.00;;;;;;5013956;28;20465;-63
2021/12/11 13:08:01;;;;;;;1.40;1.33;;;5.00;98.00;;;;;;5014513;28;20457;-63
2021/12/11 13:10:33;;;;;;;3.87;1.40;;;5.00;98.00;;;;;;5014450;28;20460;-62
2021/12/11 13:13:03;;;;;;;1.43;1.27;;;4.90;98.00;;;;;;5014714;28;20570;-62
2021/12/11 13:15:42;;;;;;;1.30;1.17;;;5.00;98.00;;;;;;5014582;28;20464;-62
2021/12/11 13:18:16;;;;;;;1.10;1.00;;;5.00;98.00;;;;;;5014506;28;20463;-63
2021/12/11 13:20:51;;;;;;;1.47;1.17;;;5.10;98.00;;;;;;5014427;28;20517;-63
2021/12/11 13:23:22;;;;;;;1.20;1.10;;;5.10;98.00;;;;;;5013912;28;20803;-62
2021/12/11 13:25:56;;;;;;;1.20;1.10;;;5.10;98.00;;;;;;4991601;28;20942;-62
2021/12/11 13:28:32;;;;;;;1.10;1.00;;;5.20;98.00;;;;;;4994454;28;21127;-62
2021/12/11 13:31:15;;;;;;;1.73;1.43;;;5.10;98.00;;;;;;4994405;28;20466;-62
2021/12/11 13:33:47;;;;;;;1.40;1.30;;;5.10;98.00;;;;;;4994597;28;20469;-62
2021/12/11 13:36:17;;;;;;;1.20;1.00;;;5.20;98.00;;;;;;4993907;28;20492;-63
2021/12/11 13:38:57;;;;;;;1.20;1.20;;;5.20;98.00;;;;;;4993962;28;21024;-63
2021/12/11 13:41:29;;;;;;;2.60;1.20;;;5.10;98.00;;;;;;4994136;28;20955;-62
2021/12/11 13:44:11;;;;;;;1.77;1.20;;;5.20;98.00;;;;;;4994389;28;20473;-62
2021/12/11 13:46:45;;;;;;;1.10;0.90;;;5.20;98.00;;;;;;4993758;28;20459;-62